sensor_id;sensor_type;location;lat;lon;timestamp;temperature;humidity
13496;DHT22;6820;49.374;8.452;2022-09-21T00:00:00;12.07;99.99
13496;DHT22;6820;49.374;8.452;2022-09-21T00:04:04;12.01;99.99
13496;DHT22;6820;49.374;8.452;2022-09-21T00:08:07;11.96;99.99
13496;DHT22;6820;49.374;8.452;2022-09-21T00:12:10;11.96;99.99
13496;DHT22;6820;49.374;8.452;2022-09-21T00:16:13;11.94;99.99
13496;DHT22;6820;49.374;8.452;2022-09-21T00:20:17;11.90;99.99
13496;DHT22;6820;49.374;8.452;2022-09-21T00:24:20;11.84;99.99
13496;DHT22;6820;49.374;8.452;2022-09-21T00:28:21;11.78;99.99
13496;DHT22;6820;49.374;8.452;2022-09-21T00:32:23;11.74;99.99
13496;DHT22;6820;49.374;8.452;2022-09-21T00:36:25;11.74;99.99
13496;DHT22;6820;49.374;8.452;2022-09-21T00:40:28;11.70;99.99
13496;DHT22;6820;49.374;8.452;2022-09-21T00:44:31;11.69;99.99
13496;DHT22;6820;49.374;8.452;2022-09-21T00:48:33;11.64;99.99
13496;DHT22;6820;49.374;8.452;2022-09-21T00:52:40;11.60;99.99
13496;DHT22;6820;49.374;8.452;2022-09-21T00:56:45;11.53;99.99
13496;DHT22;6820;49.374;8.452;2022-09-21T01:00:46;11.46;99.99
13496;DHT22;6820;49.374;8.452;2022-09-21T01:04:48;11.42;99.99
13496;DHT22;6820;49.374;8.452;2022-09-21T01:08:54;11.41;99.99
13496;DHT22;6820;49.374;8.452;2022-09-21T01:22:36;11.35;99.99
13496;DHT22;6820;49.374;8.452;2022-09-21T01:26:49;11.33;99.99
13496;DHT22;6820;49.374;8.452;2022-09-21T01:31:10;11.27;99.99
13496;DHT22;6820;49.374;8.452;2022-09-21T01:35:25;11.27;99.99
13496;DHT22;6820;49.374;8.452;2022-09-21T01:39:30;11.21;99.99
13496;DHT22;6820;49.374;8.452;2022-09-21T01:43:41;11.16;99.99
13496;DHT22;6820;49.374;8.452;2022-09-21T01:47:47;11.08;99.99
13496;DHT22;6820;49.374;8.452;2022-09-21T01:51:57;11.05;99.99
13496;DHT22;6820;49.374;8.452;2022-09-21T01:56:06;11.05;99.99
13496;DHT22;6820;49.374;8.452;2022-09-21T02:00:14;11.01;99.99
13496;DHT22;6820;49.374;8.452;2022-09-21T02:04:16;10.95;99.99
13496;DHT22;6820;49.374;8.452;2022-09-21T02:08:18;10.91;99.99
13496;DHT22;6820;49.374;8.452;2022-09-21T02:12:20;10.91;99.99
13496;DHT22;6820;49.374;8.452;2022-09-21T02:20:45;10.76;99.99
13496;DHT22;6820;49.374;8.452;2022-09-21T02:24:54;10.70;99.99
13496;DHT22;6820;49.374;8.452;2022-09-21T02:33:28;10.60;99.99
13496;DHT22;6820;49.374;8.452;2022-09-21T02:37:46;10.60;99.99
13496;DHT22;6820;49.374;8.452;2022-09-21T02:46:04;10.54;99.99
13496;DHT22;6820;49.374;8.452;2022-09-21T02:50:14;10.52;99.99
13496;DHT22;6820;49.374;8.452;2022-09-21T02:54:23;10.49;99.99
13496;DHT22;6820;49.374;8.452;2022-09-21T02:58:28;10.52;99.99
13496;DHT22;6820;49.374;8.452;2022-09-21T03:02:41;10.52;99.99
13496;DHT22;6820;49.374;8.452;2022-09-21T03:06:43;10.47;99.99
13496;DHT22;6820;49.374;8.452;2022-09-21T03:10:45;10.44;99.99
13496;DHT22;6820;49.374;8.452;2022-09-21T03:14:46;10.43;99.99
13496;DHT22;6820;49.374;8.452;2022-09-21T03:18:48;10.38;99.99
13496;DHT22;6820;49.374;8.452;2022-09-21T03:22:49;10.36;99.99
13496;DHT22;6820;49.374;8.452;2022-09-21T03:26:51;10.36;99.99
13496;DHT22;6820;49.374;8.452;2022-09-21T03:30:52;10.35;99.99
13496;DHT22;6820;49.374;8.452;2022-09-21T03:34:54;10.29;99.99
13496;DHT22;6820;49.374;8.452;2022-09-21T03:38:56;10.28;99.99
13496;DHT22;6820;49.374;8.452;2022-09-21T03:42:57;10.18;99.99
13496;DHT22;6820;49.374;8.452;2022-09-21T03:46:59;10.16;99.99
13496;DHT22;6820;49.374;8.452;2022-09-21T03:51:00;10.16;99.99
13496;DHT22;6820;49.374;8.452;2022-09-21T03:55:02;10.13;99.99
13496;DHT22;6820;49.374;8.452;2022-09-21T03:59:06;10.13;99.99
13496;DHT22;6820;49.374;8.452;2022-09-21T04:03:14;10.02;99.99
13496;DHT22;6820;49.374;8.452;2022-09-21T04:07:15;10.10;99.99
13496;DHT22;6820;49.374;8.452;2022-09-21T04:11:17;10.07;99.99
13496;DHT22;6820;49.374;8.452;2022-09-21T04:15:22;10.02;99.99
13496;DHT22;6820;49.374;8.452;2022-09-21T04:19:24;9.85;99.99
13496;DHT22;6820;49.374;8.452;2022-09-21T04:23:25;9.81;99.99
13496;DHT22;6820;49.374;8.452;2022-09-21T04:27:27;9.86;99.99
13496;DHT22;6820;49.374;8.452;2022-09-21T04:31:29;9.92;99.99
13496;DHT22;6820;49.374;8.452;2022-09-21T04:35:31;9.99;99.99
13496;DHT22;6820;49.374;8.452;2022-09-21T04:39:33;10.09;99.99
13496;DHT22;6820;49.374;8.452;2022-09-21T04:43:35;10.01;99.99
13496;DHT22;6820;49.374;8.452;2022-09-21T04:47:36;9.86;99.99
13496;DHT22;6820;49.374;8.452;2022-09-21T04:51:38;9.96;99.99
13496;DHT22;6820;49.374;8.452;2022-09-21T04:55:40;10.01;99.99
13496;DHT22;6820;49.374;8.452;2022-09-21T04:59:41;9.95;99.99
13496;DHT22;6820;49.374;8.452;2022-09-21T05:03:43;9.88;99.99
13496;DHT22;6820;49.374;8.452;2022-09-21T05:07:44;9.83;99.99
13496;DHT22;6820;49.374;8.452;2022-09-21T05:11:46;9.77;99.99
13496;DHT22;6820;49.374;8.452;2022-09-21T05:15:47;9.73;99.99
13496;DHT22;6820;49.374;8.452;2022-09-21T05:19:49;9.70;99.99
13496;DHT22;6820;49.374;8.452;2022-09-21T05:23:52;9.71;99.99
13496;DHT22;6820;49.374;8.452;2022-09-21T05:27:53;9.74;99.99
13496;DHT22;6820;49.374;8.452;2022-09-21T05:32:05;9.75;99.99
13496;DHT22;6820;49.374;8.452;2022-09-21T05:40:39;9.74;99.99
13496;DHT22;6820;49.374;8.452;2022-09-21T05:44:41;9.74;99.99
13496;DHT22;6820;49.374;8.452;2022-09-21T05:48:46;9.75;99.99
13496;DHT22;6820;49.374;8.452;2022-09-21T05:57:30;9.65;99.99
13496;DHT22;6820;49.374;8.452;2022-09-21T06:05:44;9.65;99.99
13496;DHT22;6820;49.374;8.452;2022-09-21T06:09:46;9.67;99.99
13496;DHT22;6820;49.374;8.452;2022-09-21T06:13:48;9.73;99.99
13496;DHT22;6820;49.374;8.452;2022-09-21T06:17:49;9.83;99.99
13496;DHT22;6820;49.374;8.452;2022-09-21T06:21:51;9.88;99.99
13496;DHT22;6820;49.374;8.452;2022-09-21T06:25:52;9.93;99.99
13496;DHT22;6820;49.374;8.452;2022-09-21T06:29:59;9.99;99.99
13496;DHT22;6820;49.374;8.452;2022-09-21T06:34:00;10.06;99.99
13496;DHT22;6820;49.374;8.452;2022-09-21T06:38:03;10.07;99.99
13496;DHT22;6820;49.374;8.452;2022-09-21T06:42:07;10.10;99.99
13496;DHT22;6820;49.374;8.452;2022-09-21T06:46:08;10.14;99.99
13496;DHT22;6820;49.374;8.452;2022-09-21T06:50:10;10.16;99.99
13496;DHT22;6820;49.374;8.452;2022-09-21T06:54:11;10.20;99.99
13496;DHT22;6820;49.374;8.452;2022-09-21T06:58:13;10.26;99.99
13496;DHT22;6820;49.374;8.452;2022-09-21T07:02:16;10.28;99.99
13496;DHT22;6820;49.374;8.452;2022-09-21T07:06:18;10.35;99.99
13496;DHT22;6820;49.374;8.452;2022-09-21T07:10:20;10.51;99.99
13496;DHT22;6820;49.374;8.452;2022-09-21T07:14:22;10.69;99.99
13496;DHT22;6820;49.374;8.452;2022-09-21T07:18:23;10.81;99.99
13496;DHT22;6820;49.374;8.452;2022-09-21T07:22:26;10.95;99.99
13496;DHT22;6820;49.374;8.452;2022-09-21T07:26:29;11.06;99.99
13496;DHT22;6820;49.374;8.452;2022-09-21T07:30:30;11.13;99.99
13496;DHT22;6820;49.374;8.452;2022-09-21T07:34:35;11.20;99.99
13496;DHT22;6820;49.374;8.452;2022-09-21T07:38:41;11.28;99.99
13496;DHT22;6820;49.374;8.452;2022-09-21T07:42:43;11.38;99.99
13496;DHT22;6820;49.374;8.452;2022-09-21T07:46:47;11.49;99.99
13496;DHT22;6820;49.374;8.452;2022-09-21T07:50:49;11.59;99.99
13496;DHT22;6820;49.374;8.452;2022-09-21T07:54:50;11.70;99.99
13496;DHT22;6820;49.374;8.452;2022-09-21T07:58:52;11.64;99.99
13496;DHT22;6820;49.374;8.452;2022-09-21T08:03:08;11.54;99.99
13496;DHT22;6820;49.374;8.452;2022-09-21T08:07:11;11.53;99.99
13496;DHT22;6820;49.374;8.452;2022-09-21T08:11:17;11.60;99.99
13496;DHT22;6820;49.374;8.452;2022-09-21T08:15:22;11.69;99.99
13496;DHT22;6820;49.374;8.452;2022-09-21T08:19:43;11.75;99.99
13496;DHT22;6820;49.374;8.452;2022-09-21T08:23:45;11.87;99.99
13496;DHT22;6820;49.374;8.452;2022-09-21T08:27:49;11.98;99.99
13496;DHT22;6820;49.374;8.452;2022-09-21T08:31:50;12.04;99.99
13496;DHT22;6820;49.374;8.452;2022-09-21T08:35:54;12.13;99.99
13496;DHT22;6820;49.374;8.452;2022-09-21T08:39:56;12.25;99.99
13496;DHT22;6820;49.374;8.452;2022-09-21T08:43:59;12.37;99.99
13496;DHT22;6820;49.374;8.452;2022-09-21T08:48:09;12.55;99.99
13496;DHT22;6820;49.374;8.452;2022-09-21T08:52:17;12.73;99.99
13496;DHT22;6820;49.374;8.452;2022-09-21T08:56:21;12.77;99.99
13496;DHT22;6820;49.374;8.452;2022-09-21T09:00:46;12.88;99.99
13496;DHT22;6820;49.374;8.452;2022-09-21T09:21:43;13.51;99.99
13496;DHT22;6820;49.374;8.452;2022-09-21T09:25:46;13.65;99.99
13496;DHT22;6820;49.374;8.452;2022-09-21T09:29:59;13.81;99.99
13496;DHT22;6820;49.374;8.452;2022-09-21T09:34:36;13.98;99.99
13496;DHT22;6820;49.374;8.452;2022-09-21T09:42:53;14.23;99.99
13496;DHT22;6820;49.374;8.452;2022-09-21T09:47:05;14.31;99.99
13496;DHT22;6820;49.374;8.452;2022-09-21T09:51:17;14.44;99.99
13496;DHT22;6820;49.374;8.452;2022-09-21T09:55:22;14.49;99.99
13496;DHT22;6820;49.374;8.452;2022-09-21T09:59:40;14.60;99.99
13496;DHT22;6820;49.374;8.452;2022-09-21T10:04:04;14.75;99.99
13496;DHT22;6820;49.374;8.452;2022-09-21T10:08:25;14.86;99.99
13496;DHT22;6820;49.374;8.452;2022-09-21T10:12:30;14.91;99.99
13496;DHT22;6820;49.374;8.452;2022-09-21T10:16:31;15.05;99.99
13496;DHT22;6820;49.374;8.452;2022-09-21T10:20:34;15.18;99.99
13496;DHT22;6820;49.374;8.452;2022-09-21T10:24:36;15.34;99.99
13496;DHT22;6820;49.374;8.452;2022-09-21T10:33:23;15.52;99.99
13496;DHT22;6820;49.374;8.452;2022-09-21T10:37:29;15.53;99.99
13496;DHT22;6820;49.374;8.452;2022-09-21T10:41:37;15.62;99.99
13496;DHT22;6820;49.374;8.452;2022-09-21T10:45:38;15.71;99.99
13496;DHT22;6820;49.374;8.452;2022-09-21T10:49:55;15.91;99.99
13496;DHT22;6820;49.374;8.452;2022-09-21T10:53:58;16.13;99.99
13496;DHT22;6820;49.374;8.452;2022-09-21T10:58:00;16.23;99.99
13496;DHT22;6820;49.374;8.452;2022-09-21T11:02:07;16.37;99.99
13496;DHT22;6820;49.374;8.452;2022-09-21T11:06:33;16.48;99.99
13496;DHT22;6820;49.374;8.452;2022-09-21T11:15:19;16.60;99.99
13496;DHT22;6820;49.374;8.452;2022-09-21T11:19:53;16.62;99.99
13496;DHT22;6820;49.374;8.452;2022-09-21T11:28:22;16.92;99.99
13496;DHT22;6820;49.374;8.452;2022-09-21T11:32:31;17.10;99.99
13496;DHT22;6820;49.374;8.452;2022-09-21T11:45:49;17.62;99.99
13496;DHT22;6820;49.374;8.452;2022-09-21T11:54:50;17.89;99.99
13496;DHT22;6820;49.374;8.452;2022-09-21T11:59:15;18.02;99.99
13496;DHT22;6820;49.374;8.452;2022-09-21T12:29:30;18.36;99.99
13496;DHT22;6820;49.374;8.452;2022-09-21T12:37:46;18.84;99.99
13496;DHT22;6820;49.374;8.452;2022-09-21T12:41:58;18.96;99.99
13496;DHT22;6820;49.374;8.452;2022-09-21T12:46:06;19.21;99.99
13496;DHT22;6820;49.374;8.452;2022-09-21T12:50:15;19.30;99.99
13496;DHT22;6820;49.374;8.452;2022-09-21T12:54:33;19.40;99.41
13496;DHT22;6820;49.374;8.452;2022-09-21T13:07:37;19.65;98.60
13496;DHT22;6820;49.374;8.452;2022-09-21T13:11:54;19.95;98.61
13496;DHT22;6820;49.374;8.452;2022-09-21T13:16:00;20.22;96.45
13496;DHT22;6820;49.374;8.452;2022-09-21T13:20:28;20.42;95.31
13496;DHT22;6820;49.374;8.452;2022-09-21T13:24:28;20.08;98.07
13496;DHT22;6820;49.374;8.452;2022-09-21T13:32:56;19.27;98.21
13496;DHT22;6820;49.374;8.452;2022-09-21T13:49:40;18.78;99.99
13496;DHT22;6820;49.374;8.452;2022-09-21T13:53:52;18.62;99.99
13496;DHT22;6820;49.374;8.452;2022-09-21T13:58:19;18.51;99.99
13496;DHT22;6820;49.374;8.452;2022-09-21T14:02:31;18.86;99.99
13496;DHT22;6820;49.374;8.452;2022-09-21T14:06:40;19.30;98.90
13496;DHT22;6820;49.374;8.452;2022-09-21T14:10:54;19.62;97.50
13496;DHT22;6820;49.374;8.452;2022-09-21T14:15:08;19.90;97.05
13496;DHT22;6820;49.374;8.452;2022-09-21T14:31:36;20.35;92.96
13496;DHT22;6820;49.374;8.452;2022-09-21T14:35:40;20.10;93.46
13496;DHT22;6820;49.374;8.452;2022-09-21T14:39:46;20.33;92.60
13496;DHT22;6820;49.374;8.452;2022-09-21T14:43:51;20.54;91.69
13496;DHT22;6820;49.374;8.452;2022-09-21T14:48:12;20.82;91.85
13496;DHT22;6820;49.374;8.452;2022-09-21T15:01:36;21.33;88.71
13496;DHT22;6820;49.374;8.452;2022-09-21T15:05:39;21.33;88.98
13496;DHT22;6820;49.374;8.452;2022-09-21T15:09:49;21.18;88.78
13496;DHT22;6820;49.374;8.452;2022-09-21T15:14:27;21.05;89.72
13496;DHT22;6820;49.374;8.452;2022-09-21T15:18:40;20.82;89.52
13496;DHT22;6820;49.374;8.452;2022-09-21T15:22:42;20.30;90.56
13496;DHT22;6820;49.374;8.452;2022-09-21T15:26:44;19.89;91.39
13496;DHT22;6820;49.374;8.452;2022-09-21T15:30:47;19.58;92.04
13496;DHT22;6820;49.374;8.452;2022-09-21T15:35:15;19.32;93.03
13496;DHT22;6820;49.374;8.452;2022-09-21T15:39:23;19.46;94.08
13496;DHT22;6820;49.374;8.452;2022-09-21T15:43:27;19.76;93.13
13496;DHT22;6820;49.374;8.452;2022-09-21T15:47:29;19.95;91.18
13496;DHT22;6820;49.374;8.452;2022-09-21T15:51:33;19.90;89.73
13496;DHT22;6820;49.374;8.452;2022-09-21T15:55:40;19.78;87.32
13496;DHT22;6820;49.374;8.452;2022-09-21T15:59:47;19.71;87.46
13496;DHT22;6820;49.374;8.452;2022-09-21T16:04:00;19.68;88.07
13496;DHT22;6820;49.374;8.452;2022-09-21T16:08:06;19.64;88.37
13496;DHT22;6820;49.374;8.452;2022-09-21T16:16:26;19.50;89.11
13496;DHT22;6820;49.374;8.452;2022-09-21T16:20:44;19.45;89.31
13496;DHT22;6820;49.374;8.452;2022-09-21T16:24:51;19.34;89.62
13496;DHT22;6820;49.374;8.452;2022-09-21T16:28:56;19.24;89.96
13496;DHT22;6820;49.374;8.452;2022-09-21T16:37:57;18.79;90.91
13496;DHT22;6820;49.374;8.452;2022-09-21T16:42:02;18.51;91.46
13496;DHT22;6820;49.374;8.452;2022-09-21T16:46:05;18.28;92.10
13496;DHT22;6820;49.374;8.452;2022-09-21T16:50:11;18.11;92.95
13496;DHT22;6820;49.374;8.452;2022-09-21T16:54:15;17.95;93.19
13496;DHT22;6820;49.374;8.452;2022-09-21T16:58:18;17.83;94.25
13496;DHT22;6820;49.374;8.452;2022-09-21T17:02:23;17.68;95.06
13496;DHT22;6820;49.374;8.452;2022-09-21T17:06:25;17.57;95.40
13496;DHT22;6820;49.374;8.452;2022-09-21T17:10:28;17.40;95.00
13496;DHT22;6820;49.374;8.452;2022-09-21T17:14:32;17.33;95.65
13496;DHT22;6820;49.374;8.452;2022-09-21T17:18:36;17.21;96.25
13496;DHT22;6820;49.374;8.452;2022-09-21T17:22:37;17.12;96.30
13496;DHT22;6820;49.374;8.452;2022-09-21T17:26:39;17.00;97.01
13496;DHT22;6820;49.374;8.452;2022-09-21T17:30:40;16.88;97.25
13496;DHT22;6820;49.374;8.452;2022-09-21T17:34:42;16.80;97.45
13496;DHT22;6820;49.374;8.452;2022-09-21T17:38:46;16.72;97.50
13496;DHT22;6820;49.374;8.452;2022-09-21T17:42:47;16.65;98.82
13496;DHT22;6820;49.374;8.452;2022-09-21T17:46:57;16.54;99.32
13496;DHT22;6820;49.374;8.452;2022-09-21T17:51:03;16.42;99.87
13496;DHT22;6820;49.374;8.452;2022-09-21T17:55:06;16.34;99.99
13496;DHT22;6820;49.374;8.452;2022-09-21T17:59:18;16.23;99.99
13496;DHT22;6820;49.374;8.452;2022-09-21T18:03:27;16.16;99.99
13496;DHT22;6820;49.374;8.452;2022-09-21T18:07:30;16.07;99.99
13496;DHT22;6820;49.374;8.452;2022-09-21T18:11:55;16.01;99.99
13496;DHT22;6820;49.374;8.452;2022-09-21T18:24:43;15.78;99.99
13496;DHT22;6820;49.374;8.452;2022-09-21T18:28:45;15.77;99.99
13496;DHT22;6820;49.374;8.452;2022-09-21T18:33:08;15.74;99.99
13496;DHT22;6820;49.374;8.452;2022-09-21T18:54:33;15.44;99.99
13496;DHT22;6820;49.374;8.452;2022-09-21T18:58:35;15.41;99.99
13496;DHT22;6820;49.374;8.452;2022-09-21T19:02:37;15.37;99.99
13496;DHT22;6820;49.374;8.452;2022-09-21T19:07:00;15.34;99.99
13496;DHT22;6820;49.374;8.452;2022-09-21T19:11:24;15.31;99.99
13496;DHT22;6820;49.374;8.452;2022-09-21T19:20:23;15.13;99.99
13496;DHT22;6820;49.374;8.452;2022-09-21T19:24:40;15.07;99.99
13496;DHT22;6820;49.374;8.452;2022-09-21T19:33:28;14.98;99.99
13496;DHT22;6820;49.374;8.452;2022-09-21T19:37:52;14.94;99.99
13496;DHT22;6820;49.374;8.452;2022-09-21T19:54:47;14.80;99.99
13496;DHT22;6820;49.374;8.452;2022-09-21T19:59:07;14.79;99.99
13496;DHT22;6820;49.374;8.452;2022-09-21T20:03:29;14.74;99.99
13496;DHT22;6820;49.374;8.452;2022-09-21T20:16:18;14.64;99.99
13496;DHT22;6820;49.374;8.452;2022-09-21T20:20:31;14.60;99.99
13496;DHT22;6820;49.374;8.452;2022-09-21T20:24:36;14.56;99.99
13496;DHT22;6820;49.374;8.452;2022-09-21T20:28:43;14.49;99.99
13496;DHT22;6820;49.374;8.452;2022-09-21T20:32:47;14.42;99.99
13496;DHT22;6820;49.374;8.452;2022-09-21T20:36:52;14.41;99.99
13496;DHT22;6820;49.374;8.452;2022-09-21T20:40:54;14.36;99.99
13496;DHT22;6820;49.374;8.452;2022-09-21T20:44:57;14.31;99.99
13496;DHT22;6820;49.374;8.452;2022-09-21T20:48:58;14.27;99.99
13496;DHT22;6820;49.374;8.452;2022-09-21T20:53:05;14.19;99.99
13496;DHT22;6820;49.374;8.452;2022-09-21T20:57:07;14.06;99.99
13496;DHT22;6820;49.374;8.452;2022-09-21T21:01:09;13.98;99.99
13496;DHT22;6820;49.374;8.452;2022-09-21T21:05:10;13.84;99.99
13496;DHT22;6820;49.374;8.452;2022-09-21T21:09:12;13.75;99.99
13496;DHT22;6820;49.374;8.452;2022-09-21T21:13:14;13.68;99.99
13496;DHT22;6820;49.374;8.452;2022-09-21T21:17:15;13.65;99.99
13496;DHT22;6820;49.374;8.452;2022-09-21T21:21:17;13.59;99.99
13496;DHT22;6820;49.374;8.452;2022-09-21T21:25:18;13.53;99.99
13496;DHT22;6820;49.374;8.452;2022-09-21T21:29:20;13.44;99.99
13496;DHT22;6820;49.374;8.452;2022-09-21T21:33:22;13.36;99.99
13496;DHT22;6820;49.374;8.452;2022-09-21T21:37:24;13.29;99.99
13496;DHT22;6820;49.374;8.452;2022-09-21T21:41:27;13.22;99.99
13496;DHT22;6820;49.374;8.452;2022-09-21T21:45:28;13.16;99.99
13496;DHT22;6820;49.374;8.452;2022-09-21T21:49:30;13.13;99.99
13496;DHT22;6820;49.374;8.452;2022-09-21T21:53:33;13.06;99.99
13496;DHT22;6820;49.374;8.452;2022-09-21T21:57:36;13.03;99.99
13496;DHT22;6820;49.374;8.452;2022-09-21T22:01:38;12.94;99.99
13496;DHT22;6820;49.374;8.452;2022-09-21T22:05:40;12.84;99.99
13496;DHT22;6820;49.374;8.452;2022-09-21T22:09:42;12.66;99.99
13496;DHT22;6820;49.374;8.452;2022-09-21T22:13:44;12.56;99.99
13496;DHT22;6820;49.374;8.452;2022-09-21T22:17:46;12.55;99.99
13496;DHT22;6820;49.374;8.452;2022-09-21T22:21:49;12.52;99.99
13496;DHT22;6820;49.374;8.452;2022-09-21T22:26:03;12.44;99.99
13496;DHT22;6820;49.374;8.452;2022-09-21T22:30:06;12.31;99.99
13496;DHT22;6820;49.374;8.452;2022-09-21T22:34:08;12.25;99.99
13496;DHT22;6820;49.374;8.452;2022-09-21T22:38:10;12.23;99.99
13496;DHT22;6820;49.374;8.452;2022-09-21T22:42:13;12.21;99.99
13496;DHT22;6820;49.374;8.452;2022-09-21T22:46:15;12.22;99.99
13496;DHT22;6820;49.374;8.452;2022-09-21T22:50:16;12.21;99.99
13496;DHT22;6820;49.374;8.452;2022-09-21T22:54:18;12.21;99.99
13496;DHT22;6820;49.374;8.452;2022-09-21T22:58:20;12.19;99.99
13496;DHT22;6820;49.374;8.452;2022-09-21T23:02:21;12.15;99.99
13496;DHT22;6820;49.374;8.452;2022-09-21T23:06:23;12.11;99.99
13496;DHT22;6820;49.374;8.452;2022-09-21T23:10:26;12.03;99.99
13496;DHT22;6820;49.374;8.452;2022-09-21T23:14:29;11.98;99.99
13496;DHT22;6820;49.374;8.452;2022-09-21T23:18:30;11.97;99.99
13496;DHT22;6820;49.374;8.452;2022-09-21T23:22:32;11.93;99.99
13496;DHT22;6820;49.374;8.452;2022-09-21T23:26:34;11.93;99.99
13496;DHT22;6820;49.374;8.452;2022-09-21T23:30:35;11.94;99.99
13496;DHT22;6820;49.374;8.452;2022-09-21T23:34:37;11.85;99.99
13496;DHT22;6820;49.374;8.452;2022-09-21T23:38:40;11.75;99.99
13496;DHT22;6820;49.374;8.452;2022-09-21T23:42:42;11.66;99.99
13496;DHT22;6820;49.374;8.452;2022-09-21T23:46:43;11.66;99.99
13496;DHT22;6820;49.374;8.452;2022-09-21T23:50:45;11.60;99.99
13496;DHT22;6820;49.374;8.452;2022-09-21T23:54:46;11.57;99.99
13496;DHT22;6820;49.374;8.452;2022-09-21T23:58:48;11.48;99.99
